Time;durP1;ratioP1;P1;durP2;ratioP2;P2;SDS_P1;SDS_P2;PMS_P1;PMS_P2;Temp;Humidity;BMP_temperature;BMP_pressure;BME280_temperature;BME280_humidity;BME280_pressure;Samples;Min_cycle;Max_cycle;Signal;HPM_P1;HPM_P2
2021/07/14 00:01:43;;;;;;;4.50;2.97;;;17.40;86.10;;;;;;10181958;28;20052;-52
2021/07/14 00:06:34;;;;;;;6.32;2.17;;;17.30;86.50;;;;;;10181920;28;20032;-51
2021/07/14 00:11:27;;;;;;;2.78;2.03;;;17.30;86.40;;;;;;10181590;28;20115;-50
2021/07/14 00:26:36;;;;;;;3.92;2.20;;;17.30;86.40;;;;;;10181758;28;20058;-52
2021/07/14 00:31:27;;;;;;;3.80;2.10;;;17.20;86.40;;;;;;10180930;28;20131;-49
2021/07/14 00:36:18;;;;;;;3.13;2.22;;;17.10;86.60;;;;;;10162287;28;20042;-50
2021/07/14 00:41:08;;;;;;;4.93;2.20;;;17.10;86.60;;;;;;10180579;28;20514;-49
2021/07/14 00:46:17;;;;;;;2.30;2.03;;;17.00;86.80;;;;;;10180111;28;20036;-56
2021/07/14 00:51:08;;;;;;;3.72;2.03;;;17.10;86.90;;;;;;10180051;28;20055;-53
2021/07/14 00:55:58;;;;;;;2.38;2.13;;;17.10;86.70;;;;;;10180018;28;20032;-53
2021/07/14 01:00:49;;;;;;;3.90;1.92;;;17.10;86.70;;;;;;10179355;28;20109;-52
2021/07/14 01:05:44;;;;;;;2.83;1.90;;;17.10;87.30;;;;;;10179120;28;20107;-53
2021/07/14 01:10:46;;;;;;;4.38;2.20;;;17.10;86.90;;;;;;10177469;28;20036;-52
2021/07/14 01:16:02;;;;;;;2.47;1.92;;;17.00;87.10;;;;;;10179017;28;20063;-52
2021/07/14 01:21:16;;;;;;;5.22;2.58;;;17.00;87.30;;;;;;10179111;28;20372;-55
2021/07/14 01:27:07;;;;;;;4.65;1.75;;;17.00;87.00;;;;;;10169723;28;20044;-52
2021/07/14 01:31:59;;;;;;;5.05;1.90;;;16.90;87.40;;;;;;10045986;28;20137;-52
2021/07/14 01:36:53;;;;;;;6.85;2.00;;;16.80;87.50;;;;;;10154311;28;20028;-52
2021/07/14 01:41:48;;;;;;;5.70;1.83;;;16.70;87.60;;;;;;10177893;28;20031;-51
2021/07/14 01:46:41;;;;;;;3.65;2.00;;;16.70;87.40;;;;;;10177898;28;20051;-51
2021/07/14 01:51:36;;;;;;;4.50;1.75;;;16.60;87.60;;;;;;10177688;28;20043;-52
2021/07/14 01:56:27;;;;;;;3.03;2.00;;;16.50;87.90;;;;;;10177496;28;20078;-55
2021/07/14 02:01:19;;;;;;;3.40;2.10;;;16.60;87.60;;;;;;10177770;28;20121;-51
2021/07/14 02:06:11;;;;;;;2.60;1.90;;;16.60;87.30;;;;;;10177149;28;20042;-53
2021/07/14 02:11:02;;;;;;;3.95;2.22;;;16.60;87.60;;;;;;10177115;28;20036;-52
2021/07/14 02:15:58;;;;;;;3.70;2.00;;;16.60;87.40;;;;;;10176225;28;20036;-52
2021/07/14 02:20:48;;;;;;;4.05;1.80;;;16.60;87.50;;;;;;10176754;28;20032;-50
2021/07/14 02:25:39;;;;;;;4.88;1.90;;;16.50;87.50;;;;;;10158267;28;20085;-51
2021/07/14 02:30:30;;;;;;;2.83;1.65;;;16.60;87.50;;;;;;10176024;28;20544;-53
2021/07/14 02:35:21;;;;;;;2.10;1.60;;;16.50;87.40;;;;;;10176080;28;20035;-55
2021/07/14 02:40:15;;;;;;;4.72;1.52;;;16.50;87.40;;;;;;10175856;28;20557;-52
2021/07/14 02:45:07;;;;;;;3.55;1.90;;;16.50;87.30;;;;;;10175645;28;20055;-56
2021/07/14 02:49:59;;;;;;;3.03;2.20;;;16.40;87.40;;;;;;10175359;28;20055;-49
2021/07/14 02:54:51;;;;;;;2.45;1.83;;;16.40;87.40;;;;;;10175419;28;20660;-52
2021/07/14 02:59:48;;;;;;;4.53;2.00;;;16.40;87.50;;;;;;10175112;28;20329;-52
2021/07/14 03:04:43;;;;;;;3.65;1.65;;;16.40;88.10;;;;;;10174027;28;20418;-53
2021/07/14 03:09:39;;;;;;;3.28;2.38;;;16.40;87.40;;;;;;10172361;28;20082;-52
2021/07/14 03:14:31;;;;;;;3.88;2.47;;;16.40;87.30;;;;;;10174010;28;20032;-53
2021/07/14 03:19:23;;;;;;;2.30;1.65;;;16.30;87.80;;;;;;10174484;28;20038;-49
2021/07/14 03:24:14;;;;;;;5.07;2.28;;;16.30;87.60;;;;;;10174786;28;20187;-53
2021/07/14 03:29:07;;;;;;;2.78;1.90;;;16.30;87.70;;;;;;10173128;28;20116;-53
2021/07/14 03:33:58;;;;;;;3.42;1.70;;;16.30;87.60;;;;;;10174090;28;20028;-54
2021/07/14 03:38:50;;;;;;;2.67;1.88;;;16.30;87.70;;;;;;10173947;28;20399;-55
2021/07/14 03:43:41;;;;;;;2.88;1.92;;;16.40;87.70;;;;;;10173838;28;20475;-52
2021/07/14 03:48:33;;;;;;;3.38;2.30;;;16.30;87.70;;;;;;10156430;28;20058;-55
2021/07/14 03:53:24;;;;;;;3.85;2.13;;;16.20;87.70;;;;;;10155468;28;20059;-56
2021/07/14 03:58:16;;;;;;;2.85;1.67;;;16.10;88.00;;;;;;10173959;28;20035;-52
2021/07/14 04:03:09;;;;;;;2.88;1.95;;;16.10;88.20;;;;;;10173672;28;20052;-51
2021/07/14 04:08:01;;;;;;;4.45;1.40;;;16.00;88.30;;;;;;10173763;28;20044;-59
2021/07/14 04:12:52;;;;;;;2.50;1.65;;;16.10;88.10;;;;;;10173191;28;20036;-53
2021/07/14 04:17:43;;;;;;;3.53;1.73;;;16.00;88.00;;;;;;10173251;28;20036;-54
2021/07/14 04:22:34;;;;;;;3.65;2.13;;;16.10;88.20;;;;;;10173298;28;20107;-57
2021/07/14 04:27:25;;;;;;;2.60;1.40;;;16.10;88.00;;;;;;10173200;28;20445;-56
2021/07/14 04:32:15;;;;;;;4.47;2.00;;;16.20;88.10;;;;;;10173527;28;20046;-58
2021/07/14 04:37:06;;;;;;;2.58;1.30;;;16.30;87.80;;;;;;10174128;28;20115;-52
2021/07/14 04:41:57;;;;;;;3.42;1.50;;;16.40;87.30;;;;;;10178565;28;20106;-58
2021/07/14 04:46:47;;;;;;;3.00;1.27;;;16.50;87.30;;;;;;10180517;28;20020;-53
2021/07/14 04:51:38;;;;;;;3.53;1.27;;;16.50;87.30;;;;;;10180095;28;20044;-56
2021/07/14 04:56:28;;;;;;;2.53;1.15;;;16.60;87.40;;;;;;10180069;28;20040;-54
2021/07/14 05:01:19;;;;;;;1.92;1.33;;;16.60;87.00;;;;;;10179781;28;20036;-53
2021/07/14 05:06:10;;;;;;;2.28;1.30;;;16.50;87.00;;;;;;10178781;28;20136;-53
2021/07/14 05:11:01;;;;;;;4.22;1.58;;;16.60;87.10;;;;;;10178543;28;20055;-54
2021/07/14 05:15:51;;;;;;;1.65;1.10;;;16.60;86.70;;;;;;10179617;28;20123;-56
2021/07/14 05:20:42;;;;;;;4.90;1.98;;;16.70;86.70;;;;;;10179631;28;20035;-55
2021/07/14 05:25:34;;;;;;;3.53;1.40;;;16.60;86.90;;;;;;10178938;28;20268;-56
2021/07/14 05:30:24;;;;;;;2.90;1.40;;;16.70;86.80;;;;;;10178503;28;20052;-57
2021/07/14 05:35:15;;;;;;;3.83;1.42;;;16.90;86.50;;;;;;10178565;28;20398;-56
2021/07/14 05:40:07;;;;;;;2.72;1.98;;;16.90;86.40;;;;;;10178160;28;20513;-54
2021/07/14 05:44:57;;;;;;;1.77;1.13;;;17.00;86.50;;;;;;10177943;28;20034;-54
2021/07/14 05:49:48;;;;;;;2.67;1.30;;;17.00;86.10;;;;;;10177762;28;20044;-52
2021/07/14 05:54:39;;;;;;;2.15;1.70;;;17.10;86.10;;;;;;10177277;28;20296;-51
2021/07/14 05:59:29;;;;;;;3.70;1.90;;;17.20;86.10;;;;;;10177691;28;20039;-56
2021/07/14 06:04:20;;;;;;;4.88;1.73;;;17.20;86.10;;;;;;10177831;28;20082;-53
2021/07/14 06:09:10;;;;;;;3.00;1.88;;;17.30;86.70;;;;;;10177360;28;20040;-51
2021/07/14 06:14:02;;;;;;;4.25;2.05;;;17.40;85.70;;;;;;10176920;28;20509;-55
2021/07/14 06:18:53;;;;;;;2.72;2.00;;;17.50;86.00;;;;;;10176575;28;20532;-51
2021/07/14 06:23:44;;;;;;;2.58;1.75;;;17.60;85.80;;;;;;10176538;28;20058;-54
2021/07/14 06:28:34;;;;;;;3.58;1.90;;;17.60;85.70;;;;;;10176556;28;20082;-54
2021/07/14 06:33:25;;;;;;;3.15;2.00;;;17.60;85.70;;;;;;10176137;28;20498;-54
2021/07/14 06:38:15;;;;;;;2.92;1.75;;;17.70;85.60;;;;;;10176341;28;20554;-53
2021/07/14 06:43:10;;;;;;;3.25;2.17;;;17.70;85.30;;;;;;10176054;28;20131;-52
2021/07/14 06:48:00;;;;;;;5.25;2.08;;;17.70;85.50;;;;;;10175450;28;20028;-51
2021/07/14 06:52:51;;;;;;;5.65;2.72;;;17.80;85.40;;;;;;10175252;28;20126;-54
2021/07/14 06:57:44;;;;;;;6.13;2.42;;;17.90;84.80;;;;;;10175232;28;20035;-53
2021/07/14 07:02:36;;;;;;;3.17;2.33;;;17.90;84.90;;;;;;10174781;28;20135;-51
2021/07/14 07:07:26;;;;;;;4.55;2.20;;;17.80;85.10;;;;;;10175110;28;20067;-52
2021/07/14 07:12:17;;;;;;;3.70;2.10;;;18.00;84.90;;;;;;10175068;28;20048;-53
2021/07/14 07:17:07;;;;;;;4.45;1.95;;;18.00;84.80;;;;;;10174824;28;20063;-53
2021/07/14 07:21:59;;;;;;;2.78;2.00;;;18.10;84.70;;;;;;10174689;28;20062;-52
2021/07/14 07:26:49;;;;;;;5.97;2.72;;;18.10;84.80;;;;;;10174479;28;20024;-53
2021/07/14 07:31:40;;;;;;;3.67;1.63;;;18.30;84.20;;;;;;10174707;28;20131;-52
2021/07/14 07:36:31;;;;;;;5.45;2.13;;;18.30;84.40;;;;;;10174910;28;20028;-51
2021/07/14 07:41:24;;;;;;;4.15;2.10;;;18.50;84.10;;;;;;10174342;28;20550;-53
2021/07/14 07:46:15;;;;;;;3.72;1.98;;;18.40;84.30;;;;;;10173931;28;20032;-53
2021/07/14 07:51:07;;;;;;;4.22;2.08;;;18.40;84.30;;;;;;10173957;28;20050;-54
2021/07/14 07:55:58;;;;;;;3.25;2.08;;;18.40;84.10;;;;;;10173980;28;20467;-53
2021/07/14 08:00:49;;;;;;;2.60;1.88;;;18.40;84.30;;;;;;10173557;28;20118;-50
2021/07/14 08:05:41;;;;;;;2.95;1.95;;;18.40;84.30;;;;;;10155540;28;20070;-52
2021/07/14 08:10:32;;;;;;;4.90;2.00;;;18.40;84.30;;;;;;10173072;28;20044;-52
2021/07/14 08:15:23;;;;;;;5.28;1.90;;;18.50;84.20;;;;;;10177256;28;20534;-51
2021/07/14 08:20:14;;;;;;;2.65;1.98;;;18.60;83.90;;;;;;10181557;28;20529;-50
2021/07/14 08:25:06;;;;;;;3.63;2.08;;;18.40;84.00;;;;;;10162819;28;20127;-55
2021/07/14 08:30:00;;;;;;;4.50;1.77;;;18.40;84.40;;;;;;10163063;28;20055;-50
2021/07/14 08:34:51;;;;;;;5.07;2.33;;;18.50;84.30;;;;;;10179386;28;20047;-52
2021/07/14 08:39:41;;;;;;;5.28;1.92;;;18.60;84.10;;;;;;10180240;28;20032;-55
2021/07/14 08:44:34;;;;;;;3.25;2.10;;;18.60;84.10;;;;;;10180107;28;20085;-53
2021/07/14 08:49:25;;;;;;;6.22;2.22;;;18.80;84.00;;;;;;10180014;28;20067;-57
2021/07/14 08:54:16;;;;;;;3.17;1.63;;;19.20;83.50;;;;;;10180056;28;20032;-54
2021/07/14 08:59:06;;;;;;;3.58;2.40;;;19.30;83.20;;;;;;10180055;28;20380;-53
2021/07/14 09:03:58;;;;;;;2.67;1.55;;;19.20;83.30;;;;;;10180459;28;20537;-53
2021/07/14 09:08:49;;;;;;;2.47;1.83;;;19.30;83.30;;;;;;10179262;28;20078;-58
2021/07/14 09:13:40;;;;;;;1.80;1.38;;;19.50;83.20;;;;;;10180346;28;20040;-53
2021/07/14 09:18:32;;;;;;;2.00;1.80;;;19.50;82.70;;;;;;10161324;28;20036;-51
2021/07/14 09:23:25;;;;;;;2.75;1.88;;;19.60;82.60;;;;;;10178845;28;20040;-53
2021/07/14 09:28:19;;;;;;;2.63;1.70;;;19.50;82.50;;;;;;10178927;28;20032;-50
2021/07/14 09:33:11;;;;;;;2.30;1.48;;;19.50;82.40;;;;;;10178720;28;20054;-53
2021/07/14 09:38:14;;;;;;;2.47;1.88;;;19.40;82.30;;;;;;10178419;28;20251;-54
2021/07/14 09:43:12;;;;;;;3.58;1.35;;;19.40;82.30;;;;;;10177951;28;20052;-51
2021/07/14 09:48:04;;;;;;;2.83;1.80;;;19.30;82.00;;;;;;10159524;28;20032;-53
2021/07/14 09:53:06;;;;;;;1.80;1.42;;;19.30;81.80;;;;;;10178267;28;20040;-50
2021/07/14 09:58:30;;;;;;;3.28;1.50;;;19.20;81.80;;;;;;10159222;28;20051;-48
2021/07/14 10:03:49;;;;;;;2.53;1.50;;;19.30;81.20;;;;;;10132101;28;20098;-51
2021/07/14 10:08:41;;;;;;;1.23;1.13;;;19.50;80.80;;;;;;10166553;28;20314;-52
2021/07/14 10:13:32;;;;;;;2.03;1.30;;;19.70;80.60;;;;;;10176770;28;20036;-53
2021/07/14 10:18:23;;;;;;;1.85;1.35;;;19.90;80.00;;;;;;10176893;28;20040;-52
2021/07/14 10:23:15;;;;;;;1.88;1.27;;;20.00;79.70;;;;;;10176397;28;20075;-52
2021/07/14 10:28:09;;;;;;;2.45;1.35;;;20.00;79.50;;;;;;10176100;28;20161;-51
2021/07/14 10:33:00;;;;;;;2.83;1.52;;;20.00;79.30;;;;;;10176730;28;20076;-53
2021/07/14 10:37:57;;;;;;;2.03;0.93;;;20.20;78.70;;;;;;10175982;28;20034;-52
2021/07/14 10:42:50;;;;;;;1.75;0.82;;;20.20;78.30;;;;;;10177007;28;20086;-51
2021/07/14 10:47:43;;;;;;;2.80;1.00;;;20.40;77.70;;;;;;10175756;28;20032;-51
2021/07/14 10:52:34;;;;;;;2.25;0.93;;;20.40;77.30;;;;;;10175889;28;20083;-54
2021/07/14 10:57:26;;;;;;;2.28;1.10;;;20.50;77.00;;;;;;10175452;28;20511;-53
2021/07/14 11:02:16;;;;;;;1.65;1.45;;;20.60;76.80;;;;;;10174623;28;20202;-54
2021/07/14 11:07:08;;;;;;;1.27;1.05;;;20.90;76.30;;;;;;10172927;28;20394;-50
2021/07/14 11:11:59;;;;;;;2.17;0.95;;;21.10;75.90;;;;;;10173474;28;20040;-51
2021/07/14 11:16:59;;;;;;;1.33;1.02;;;21.30;75.50;;;;;;10175183;28;20077;-54
2021/07/14 11:21:56;;;;;;;1.55;1.05;;;21.20;75.30;;;;;;10175349;28;20040;-55
2021/07/14 11:26:47;;;;;;;2.28;1.20;;;21.40;75.60;;;;;;10174799;28;20036;-54
2021/07/14 11:31:41;;;;;;;2.97;1.30;;;21.50;75.00;;;;;;10174284;28;20512;-53
2021/07/14 11:36:41;;;;;;;1.73;1.40;;;21.70;74.70;;;;;;10174037;28;20161;-51
2021/07/14 11:41:35;;;;;;;2.08;1.20;;;21.90;74.20;;;;;;10174729;28;20032;-54
2021/07/14 11:46:29;;;;;;;2.65;1.30;;;21.80;73.80;;;;;;10174323;28;20051;-53
2021/07/14 11:51:22;;;;;;;1.17;1.00;;;21.80;74.00;;;;;;10173012;28;20046;-57
2021/07/14 11:56:13;;;;;;;0.95;0.80;;;21.90;73.60;;;;;;10173616;28;20047;-55
2021/07/14 12:01:06;;;;;;;2.75;1.55;;;22.40;72.80;;;;;;10173752;28;20525;-59
2021/07/14 12:05:57;;;;;;;1.63;1.17;;;22.50;72.40;;;;;;10173391;28;20032;-54
2021/07/14 12:10:56;;;;;;;1.92;1.00;;;22.50;71.90;;;;;;10173100;28;20044;-56
2021/07/14 12:15:47;;;;;;;2.00;1.17;;;22.40;71.60;;;;;;10173647;28;20055;-52
2021/07/14 12:20:38;;;;;;;1.10;1.00;;;22.40;71.30;;;;;;10173181;28;20040;-53
2021/07/14 12:25:29;;;;;;;1.63;1.15;;;22.60;70.40;;;;;;10173474;28;20449;-55
2021/07/14 12:30:21;;;;;;;2.85;1.20;;;23.00;69.80;;;;;;10172793;28;20051;-55
2021/07/14 12:35:30;;;;;;;1.77;1.10;;;23.70;68.50;;;;;;10173107;28;20036;-56
2021/07/14 12:40:28;;;;;;;1.02;0.90;;;24.20;66.50;;;;;;10172423;28;20110;-55
2021/07/14 12:45:43;;;;;;;1.80;1.42;;;24.50;66.60;;;;;;10172536;28;20048;-56
2021/07/14 12:50:37;;;;;;;1.17;1.00;;;24.20;65.20;;;;;;10162197;28;20059;-54
2021/07/14 12:55:28;;;;;;;1.27;1.10;;;23.70;67.30;;;;;;10172507;28;20044;-52
2021/07/14 13:00:21;;;;;;;1.48;1.00;;;23.30;67.00;;;;;;10173521;28;20293;-59
2021/07/14 13:05:15;;;;;;;2.75;1.20;;;22.70;68.00;;;;;;10179678;28;20345;-60
2021/07/14 13:10:07;;;;;;;2.47;1.35;;;22.20;68.50;;;;;;10179466;28;20036;-58
2021/07/14 13:14:59;;;;;;;1.63;1.52;;;21.90;68.80;;;;;;10160698;28;20085;-53
2021/07/14 13:19:58;;;;;;;3.53;1.20;;;21.60;68.70;;;;;;10179375;28;20034;-55
2021/07/14 13:25:00;;;;;;;1.45;0.98;;;21.50;68.80;;;;;;10160644;28;20453;-53
2021/07/14 13:29:51;;;;;;;1.25;1.15;;;21.40;68.60;;;;;;10178435;28;20040;-51
2021/07/14 13:34:44;;;;;;;1.55;1.10;;;21.20;68.80;;;;;;10179303;28;20032;-53
2021/07/14 13:39:39;;;;;;;1.33;1.20;;;21.20;68.80;;;;;;10178661;28;20465;-53
2021/07/14 13:44:31;;;;;;;1.50;1.05;;;21.10;68.90;;;;;;10178039;28;20036;-54
2021/07/14 13:49:23;;;;;;;1.85;1.00;;;21.10;68.80;;;;;;10177901;28;20040;-53
2021/07/14 13:54:25;;;;;;;1.20;0.80;;;21.10;68.90;;;;;;10178259;28;20043;-56
2021/07/14 13:59:26;;;;;;;1.23;1.00;;;21.10;69.20;;;;;;10159316;28;20032;-54
2021/07/14 14:04:17;;;;;;;1.95;1.25;;;20.90;69.90;;;;;;10177088;28;20233;-53
2021/07/14 14:09:16;;;;;;;1.17;1.00;;;20.60;70.80;;;;;;10177315;28;20093;-53
2021/07/14 14:14:06;;;;;;;1.20;1.10;;;20.60;71.50;;;;;;10157792;28;20036;-55
2021/07/14 14:18:58;;;;;;;3.28;1.35;;;20.50;72.30;;;;;;10176809;28;20107;-53
2021/07/14 14:23:48;;;;;;;2.08;0.98;;;20.40;73.00;;;;;;10176797;28;20047;-52
2021/07/14 14:28:39;;;;;;;1.17;1.00;;;20.50;73.50;;;;;;10176415;28;20056;-53
2021/07/14 14:33:29;;;;;;;1.55;0.80;;;20.30;74.30;;;;;;10175833;28;20063;-54
2021/07/14 14:38:22;;;;;;;1.88;0.90;;;20.20;75.00;;;;;;10176440;28;20271;-52
2021/07/14 14:43:13;;;;;;;1.75;1.10;;;20.20;75.40;;;;;;10157929;28;20137;-55
2021/07/14 14:48:04;;;;;;;0.73;0.73;;;20.20;75.70;;;;;;10175667;28;20430;-55
2021/07/14 14:52:55;;;;;;;2.13;1.20;;;20.10;76.30;;;;;;10175399;28;20119;-56
2021/07/14 14:57:46;;;;;;;2.50;0.70;;;20.00;76.80;;;;;;10175189;28;20111;-55
2021/07/14 15:02:37;;;;;;;3.65;0.85;;;19.90;77.40;;;;;;10174892;28;20056;-55
2021/07/14 15:07:27;;;;;;;1.90;0.90;;;19.80;77.90;;;;;;10173446;28;20029;-54
2021/07/14 15:12:18;;;;;;;0.85;0.40;;;19.70;78.60;;;;;;10173363;28;20201;-52
2021/07/14 15:17:09;;;;;;;0.47;0.47;;;19.50;79.10;;;;;;10175237;28;20065;-55
2021/07/14 15:22:00;;;;;;;3.90;0.75;;;19.40;79.40;;;;;;10174367;28;20062;-59
2021/07/14 15:32:00;;;;;;;0.50;0.40;;;19.20;79.90;;;;;;10175163;28;20156;-54
2021/07/14 15:36:50;;;;;;;0.40;0.40;;;19.20;80.40;;;;;;10174152;28;20164;-55
2021/07/14 15:41:41;;;;;;;0.95;0.55;;;19.10;80.30;;;;;;10173853;28;20031;-56
2021/07/14 15:46:32;;;;;;;1.25;0.40;;;19.00;80.30;;;;;;10173968;28;20059;-53
2021/07/14 15:51:23;;;;;;;0.30;0.25;;;19.00;80.40;;;;;;10174015;28;20136;-55
2021/07/14 15:56:13;;;;;;;0.43;0.40;;;19.00;80.90;;;;;;10174014;28;20097;-54
2021/07/14 16:01:08;;;;;;;1.38;0.40;;;19.00;80.90;;;;;;10173893;28;20427;-57
2021/07/14 16:06:00;;;;;;;0.93;0.60;;;18.90;82.10;;;;;;10173939;28;20157;-58
2021/07/14 16:10:51;;;;;;;1.63;0.73;;;19.00;81.70;;;;;;10155078;28;20217;-55
2021/07/14 16:15:41;;;;;;;1.98;0.90;;;19.00;82.00;;;;;;10173530;28;20266;-53
2021/07/14 16:20:32;;;;;;;1.90;1.70;;;19.10;82.20;;;;;;10173239;28;20040;-52
2021/07/14 16:25:23;;;;;;;1.88;1.10;;;18.90;82.60;;;;;;10172972;28;20031;-53
2021/07/14 16:30:14;;;;;;;1.60;0.88;;;19.00;82.80;;;;;;10173611;28;20862;-51
2021/07/14 16:35:07;;;;;;;1.33;0.40;;;19.00;82.60;;;;;;10173673;28;20448;-53
2021/07/14 16:39:57;;;;;;;1.15;1.05;;;19.00;83.00;;;;;;10180222;28;20032;-53
2021/07/14 16:44:48;;;;;;;0.75;0.50;;;19.00;83.30;;;;;;10180166;28;20051;-53
2021/07/14 16:49:38;;;;;;;1.35;0.70;;;18.90;83.70;;;;;;10180433;28;20591;-52
2021/07/14 16:54:29;;;;;;;1.55;0.77;;;18.90;84.00;;;;;;10180172;28;20031;-53
2021/07/14 16:59:21;;;;;;;0.88;0.50;;;19.00;83.90;;;;;;10161608;28;20127;-56
2021/07/14 17:04:11;;;;;;;2.45;0.90;;;19.00;84.00;;;;;;10161352;28;20403;-53
2021/07/14 17:09:03;;;;;;;2.70;1.50;;;18.90;84.00;;;;;;10179833;28;20047;-52
2021/07/14 17:13:53;;;;;;;1.05;0.75;;;18.80;84.30;;;;;;10179433;28;20290;-52
2021/07/14 17:18:44;;;;;;;1.48;0.70;;;18.80;84.50;;;;;;10179270;28;20521;-54
2021/07/14 17:23:35;;;;;;;1.70;1.08;;;18.80;84.50;;;;;;10179160;28;20248;-54
2021/07/14 17:28:26;;;;;;;0.80;0.70;;;18.70;84.80;;;;;;10178695;28;20040;-55
2021/07/14 17:33:17;;;;;;;1.65;0.90;;;18.70;85.00;;;;;;10178666;28;20800;-55
2021/07/14 17:38:08;;;;;;;1.00;0.80;;;18.70;85.20;;;;;;10178994;28;20098;-53
2021/07/14 17:42:59;;;;;;;0.95;0.47;;;18.70;85.20;;;;;;10177992;28;20056;-53
2021/07/14 17:47:50;;;;;;;2.83;1.08;;;18.70;85.40;;;;;;10176789;28;20043;-57
2021/07/14 17:52:42;;;;;;;1.13;0.63;;;18.60;85.70;;;;;;10177733;28;20036;-55
2021/07/14 17:57:32;;;;;;;1.63;0.80;;;18.60;85.90;;;;;;10177854;28;20048;-55
2021/07/14 18:02:23;;;;;;;1.77;1.23;;;18.60;85.90;;;;;;10177865;28;20036;-53
2021/07/14 18:07:14;;;;;;;2.97;0.70;;;18.60;85.90;;;;;;10177352;28;20124;-58
2021/07/14 18:12:05;;;;;;;1.10;0.52;;;18.50;85.90;;;;;;10176976;28;20040;-52
2021/07/14 18:16:56;;;;;;;0.68;0.50;;;18.50;86.10;;;;;;10176919;28;20440;-53
2021/07/14 18:21:47;;;;;;;0.80;0.50;;;18.40;86.20;;;;;;10177280;28;20062;-54
2021/07/14 18:26:39;;;;;;;0.50;0.30;;;18.40;86.50;;;;;;10177013;28;20228;-56
2021/07/14 18:31:30;;;;;;;1.13;0.57;;;18.50;86.60;;;;;;10177295;28;20040;-56
2021/07/14 18:36:23;;;;;;;0.73;0.60;;;18.50;86.30;;;;;;10176397;28;20020;-52
2021/07/14 18:41:19;;;;;;;3.47;0.98;;;18.60;86.30;;;;;;10176535;28;20078;-57
2021/07/14 18:46:10;;;;;;;0.75;0.40;;;18.50;86.40;;;;;;10176091;28;20050;-55
2021/07/14 18:51:01;;;;;;;0.95;0.60;;;18.50;86.60;;;;;;10176525;28;20057;-58
2021/07/14 18:55:52;;;;;;;0.90;0.52;;;18.50;86.60;;;;;;10176423;28;20044;-53
2021/07/14 19:00:43;;;;;;;0.40;0.32;;;18.30;87.00;;;;;;10174544;28;20051;-53
2021/07/14 19:05:34;;;;;;;2.17;0.93;;;18.30;87.30;;;;;;10138435;28;20091;-50
2021/07/14 19:10:25;;;;;;;2.60;0.73;;;18.30;87.40;;;;;;10132814;28;20538;-52
2021/07/14 19:15:17;;;;;;;1.42;0.60;;;18.20;87.90;;;;;;10115824;28;20116;-56
2021/07/14 19:20:09;;;;;;;1.17;0.50;;;18.20;88.40;;;;;;10134369;28;20546;-55
2021/07/14 19:25:00;;;;;;;1.10;0.70;;;18.10;88.50;;;;;;10134281;28;20173;-53
2021/07/14 19:29:52;;;;;;;1.63;0.55;;;18.10;88.80;;;;;;10134241;28;20530;-53
2021/07/14 19:34:42;;;;;;;0.88;0.70;;;18.00;89.00;;;;;;10134578;28;20029;-53
2021/07/14 19:39:34;;;;;;;1.05;0.70;;;18.00;89.50;;;;;;10133316;28;20032;-56
2021/07/14 19:44:25;;;;;;;1.15;0.70;;;18.00;89.50;;;;;;10171958;28;20020;-54
2021/07/14 19:49:15;;;;;;;1.35;0.50;;;18.00;89.70;;;;;;10174308;28;20104;-59
2021/07/14 19:54:06;;;;;;;1.25;0.60;;;18.00;89.50;;;;;;10173905;28;20047;-55
2021/07/14 19:58:57;;;;;;;2.38;1.08;;;18.00;89.80;;;;;;10173883;28;20276;-53
2021/07/14 20:03:47;;;;;;;1.20;0.90;;;17.90;89.90;;;;;;10172711;28;20044;-54
2021/07/14 20:08:39;;;;;;;0.45;0.30;;;17.90;90.00;;;;;;10171178;28;20510;-54
2021/07/14 20:13:30;;;;;;;0.70;0.50;;;17.90;90.00;;;;;;10180566;28;20052;-56
2021/07/14 20:18:21;;;;;;;1.15;0.40;;;17.80;90.20;;;;;;10163751;28;20039;-58
2021/07/14 20:23:13;;;;;;;0.80;0.40;;;17.70;90.20;;;;;;10182239;28;20044;-54
2021/07/14 20:28:04;;;;;;;2.22;0.35;;;17.70;90.30;;;;;;10181820;28;20174;-54
2021/07/14 20:32:54;;;;;;;0.40;0.40;;;17.60;90.40;;;;;;10181270;28;20101;-59
2021/07/14 20:37:45;;;;;;;1.52;0.50;;;17.60;90.40;;;;;;10181633;28;20037;-59
2021/07/14 20:42:36;;;;;;;0.82;0.50;;;17.60;90.40;;;;;;10180948;28;20036;-60
2021/07/14 20:47:27;;;;;;;1.95;0.40;;;17.60;90.40;;;;;;10180891;28;20141;-56
2021/07/14 20:52:18;;;;;;;0.77;0.30;;;17.50;90.50;;;;;;10180616;28;20158;-53
2021/07/14 20:57:09;;;;;;;0.43;0.25;;;17.50;90.60;;;;;;10180217;28;20115;-57
2021/07/14 21:01:59;;;;;;;0.73;0.30;;;17.40;90.60;;;;;;10180027;28;20101;-57
2021/07/14 21:06:50;;;;;;;1.00;0.28;;;17.40;90.60;;;;;;10179818;28;20081;-61
2021/07/14 21:11:41;;;;;;;0.70;0.40;;;17.40;90.50;;;;;;10179916;28;20047;-59
2021/07/14 21:16:32;;;;;;;0.80;0.40;;;17.40;90.60;;;;;;10179985;28;20032;-57
2021/07/14 21:21:23;;;;;;;0.60;0.30;;;17.30;90.60;;;;;;10179124;28;20085;-59
2021/07/14 21:26:15;;;;;;;0.20;0.20;;;17.30;90.70;;;;;;10179173;28;20068;-59
2021/07/14 21:31:05;;;;;;;0.50;0.30;;;17.20;90.70;;;;;;10178944;28;20456;-57
2021/07/14 21:35:57;;;;;;;0.30;0.30;;;17.20;90.80;;;;;;10179703;28;20135;-57
2021/07/14 21:40:48;;;;;;;0.20;0.20;;;17.30;90.70;;;;;;10178460;28;20047;-59
2021/07/14 21:45:39;;;;;;;0.20;0.20;;;17.20;90.70;;;;;;10178840;28;20047;-58
2021/07/14 21:50:31;;;;;;;2.40;0.40;;;17.20;90.70;;;;;;10178280;28;20052;-57
2021/07/14 21:55:22;;;;;;;1.70;0.20;;;17.20;90.70;;;;;;10178921;28;20174;-55
2021/07/14 22:00:23;;;;;;;1.58;0.90;;;17.20;90.80;;;;;;10178329;28;20285;-59
2021/07/14 22:05:14;;;;;;;1.73;0.30;;;17.20;90.90;;;;;;10177820;28;20124;-58
2021/07/14 22:10:10;;;;;;;0.47;0.30;;;17.20;90.90;;;;;;10177136;28;20028;-58
2021/07/14 22:15:02;;;;;;;0.38;0.20;;;17.10;90.90;;;;;;10177194;28;20036;-57
2021/07/14 22:19:53;;;;;;;1.17;0.50;;;17.10;91.00;;;;;;10176828;28;20038;-56
2021/07/14 22:24:43;;;;;;;0.68;0.32;;;17.10;91.00;;;;;;10176656;28;20032;-54
2021/07/14 22:29:34;;;;;;;0.43;0.40;;;17.00;91.00;;;;;;10176775;28;20434;-60
2021/07/14 22:34:26;;;;;;;0.80;0.30;;;17.00;91.10;;;;;;10176152;28;20043;-58
2021/07/14 22:39:17;;;;;;;0.88;0.30;;;17.00;91.00;;;;;;10176402;28;20112;-58
2021/07/14 22:44:10;;;;;;;0.40;0.30;;;17.00;91.10;;;;;;10176372;28;20060;-56
2021/07/14 22:49:03;;;;;;;0.43;0.20;;;16.90;91.20;;;;;;10175432;28;20043;-58
2021/07/14 22:53:53;;;;;;;0.13;0.10;;;16.90;91.20;;;;;;10158229;28;20070;-59
2021/07/14 22:58:44;;;;;;;0.32;0.20;;;16.90;91.20;;;;;;10175934;28;20039;-58
2021/07/14 23:03:35;;;;;;;0.30;0.17;;;16.90;91.30;;;;;;10175483;28;20055;-55
2021/07/14 23:08:25;;;;;;;0.10;0.10;;;16.80;91.30;;;;;;10175213;28;20119;-59
2021/07/14 23:13:16;;;;;;;0.50;0.25;;;16.90;91.30;;;;;;10174867;28;20593;-59
2021/07/14 23:18:07;;;;;;;0.20;0.10;;;16.80;91.50;;;;;;10174856;28;20415;-56
2021/07/14 23:22:58;;;;;;;0.80;0.60;;;16.70;91.40;;;;;;10174676;28;20044;-53
2021/07/14 23:27:49;;;;;;;0.80;0.30;;;16.70;91.60;;;;;;10156513;28;20094;-53
2021/07/14 23:32:41;;;;;;;0.30;0.20;;;16.80;91.50;;;;;;10156233;28;20134;-55
2021/07/14 23:37:32;;;;;;;0.17;0.17;;;16.60;91.60;;;;;;10174673;28;20032;-58
2021/07/14 23:42:22;;;;;;;0.30;0.20;;;16.70;91.70;;;;;;10174027;28;20248;-55
2021/07/14 23:47:13;;;;;;;0.20;0.20;;;16.70;91.70;;;;;;10155659;28;20333;-57
2021/07/14 23:52:04;;;;;;;0.55;0.25;;;16.70;91.70;;;;;;10173735;28;20040;-55
2021/07/14 23:56:55;;;;;;;0.35;0.20;;;16.70;91.60;;;;;;10173713;28;20035;-58
